To NAV CANADA Home Page Login to a new session Search on AWWS site Feedback and Comments Disclaimer Vers la page française équivalente Tips FAQ What's new on the site To the Forecasts and Observations / NOTAM section To "File a Flight Plan" website Publications and other links Update of the User's profile FIC Telephone Numbers My Weather Data Folder Route Weather Data Regional Weather Data Local Weather Data To the Forecasts and Observations / NOTAM section
Request Generated 05/23/2015 at 04:11:21 UTC . Weather information available at that time is displayed.

METAR/TAF

CLYDE RIVER/NU    (show WxCam)

SPECI CYCY 230402Z AUTO 32006KT 9SM OVC018 M07/M10 A2973 RMK SLP072=
METAR CYCY 230400Z AUTO 31007KT 9SM -SN OVC018 M07/M10 A2973 RMK
SLP071=
SPECI CYCY 230341Z AUTO 31007KT 9SM -SN OVC018 M07/M10 A2973 RMK
SLP070=
SPECI CYCY 230340Z AUTO 31007KT 9SM OVC018 M07/M10 A2973 RMK SLP070=
METAR CYCY 230300Z AUTO 33008KT 9SM -SN OVC016 M07/M10 A2972 RMK
SLP068=
METAR CYCY 230200Z AUTO 32010KT 9SM -SN OVC014 M07/M09 A2972 RMK
SLP066=

TAF CYCY 230038Z 2301/2313 32010KT P6SM SCT006 OVC020 TEMPO 2301/2312
3SM -SN BR BKN006 OVC020 PROB30 2304/2309 1SM BR OVC003
FM231200 17008KT P6SM FEW006
RMK FCST BASED ON AUTO OBS. NXT FCST BY 230700Z=
Your time UTC time
Weather data provided by Environment Canada and NAV CANADA